Time,TemperatureF,DewpointF,PressureIn,WindDirection,WindDirectionDegrees,WindSpeedMPH,WindSpeedGustMPH,Humidity,HourlyPrecipIn,Conditions,Clouds,dailyrainin,SolarRadiationWatts/m^2,SoftwareType,DateUTC
2013-05-16 00:00:00,42.2,38.0,29.88,SW,215,4.0,-999.0,86,-99.99,,,0.00,0,weatherlink.com 1.10,2013-05-16 07:00:00,
2013-05-16 00:14:00,42.2,38.0,29.88,SW,215,0.0,-999.0,86,-99.99,,,0.00,0,weatherlink.com 1.10,2013-05-16 07:14:00,
2013-05-16 00:29:00,42.2,38.0,29.89,SW,215,2.0,-999.0,86,-99.99,,,0.00,0,weatherlink.com 1.10,2013-05-16 07:29:00,
2013-05-16 00:44:00,42.8,39.0,29.88,SW,215,2.0,-999.0,86,-99.99,,,0.00,0,weatherlink.com 1.10,2013-05-16 07:44:00,
2013-05-16 00:59:00,42.9,39.0,29.88,SW,215,2.0,-999.0,86,-99.99,,,0.00,0,weatherlink.com 1.10,2013-05-16 07:59:00,
2013-05-16 01:14:00,43.0,39.0,29.88,SW,215,2.0,-999.0,86,-99.99,,,0.00,0,weatherlink.com 1.10,2013-05-16 08:14:00,
2013-05-16 01:29:00,43.3,39.0,29.87,SSW,204,0.0,-999.0,85,-99.99,,,0.00,0,weatherlink.com 1.10,2013-05-16 08:29:00,
2013-05-16 01:44:00,40.7,37.0,29.87,SSW,213,3.0,-999.0,85,-99.99,,,0.00,0,weatherlink.com 1.10,2013-05-16 08:44:00,
2013-05-16 01:59:00,41.4,38.0,29.87,SSW,213,2.0,-999.0,87,-99.99,,,0.00,0,weatherlink.com 1.10,2013-05-16 08:59:00,
2013-05-16 02:14:00,42.3,38.0,29.87,SSW,213,0.0,-999.0,86,-99.99,,,0.00,0,weatherlink.com 1.10,2013-05-16 09:14:00,
2013-05-16 02:29:00,42.4,38.0,29.86,SSW,213,0.0,-999.0,85,-99.99,,,0.00,0,weatherlink.com 1.10,2013-05-16 09:29:00,
2013-05-16 02:44:00,42.6,38.0,29.86,SSW,213,0.0,-999.0,83,-99.99,,,0.00,0,weatherlink.com 1.10,2013-05-16 09:44:00,
2013-05-16 02:59:00,42.6,38.0,29.86,SSW,213,0.0,-999.0,83,-99.99,,,0.00,0,weatherlink.com 1.10,2013-05-16 09:59:00,
2013-05-16 03:14:00,42.7,38.0,29.85,SSW,213,1.0,-999.0,83,-99.99,,,0.00,0,weatherlink.com 1.10,2013-05-16 10:14:00,
2013-05-16 03:29:00,42.8,38.0,29.84,SSW,213,0.0,-999.0,82,-99.99,,,0.00,0,weatherlink.com 1.10,2013-05-16 10:29:00,
2013-05-16 03:44:00,41.6,37.0,29.84,SSW,213,0.0,-999.0,82,-99.99,,,0.00,0,weatherlink.com 1.10,2013-05-16 10:44:00,
2013-05-16 03:59:00,41.1,37.0,29.84,SSW,213,0.0,-999.0,85,-99.99,,,0.00,0,weatherlink.com 1.10,2013-05-16 10:59:00,
2013-05-16 04:14:00,41.6,37.0,29.84,SSW,213,0.0,-999.0,85,-99.99,,,0.00,0,weatherlink.com 1.10,2013-05-16 11:14:00,
2013-05-16 04:29:00,42.1,38.0,29.84,SSW,213,2.0,-999.0,84,-99.99,,,0.00,0,weatherlink.com 1.10,2013-05-16 11:29:00,
2013-05-16 04:44:00,40.3,37.0,29.84,SSW,213,3.0,-999.0,86,-99.99,,,0.00,0,weatherlink.com 1.10,2013-05-16 11:44:00,
2013-05-16 04:59:00,41.1,37.0,29.84,SSW,213,0.0,-999.0,86,-99.99,,,0.00,0,weatherlink.com 1.10,2013-05-16 11:59:00,
2013-05-16 05:14:00,40.8,37.0,29.84,SSW,213,0.0,-999.0,87,-99.99,,,0.00,0,weatherlink.com 1.10,2013-05-16 12:14:00,
2013-05-16 05:29:00,40.6,37.0,29.83,SSW,213,0.0,-999.0,87,-99.99,,,0.00,0,weatherlink.com 1.10,2013-05-16 12:29:00,
2013-05-16 05:44:00,40.7,38.0,29.84,SSW,213,0.0,-999.0,88,-99.99,,,0.00,0,weatherlink.com 1.10,2013-05-16 12:44:00,
2013-05-16 05:59:00,41.1,38.0,29.84,SSW,213,1.0,-999.0,87,-99.99,,,0.00,7,weatherlink.com 1.10,2013-05-16 12:59:00,
2013-05-16 06:14:00,41.3,38.0,29.84,SSW,213,2.0,-999.0,87,-99.99,,,0.00,14,weatherlink.com 1.10,2013-05-16 13:14:00,
2013-05-16 06:29:00,41.4,38.0,29.84,SSW,213,2.0,-999.0,88,-99.99,,,0.00,30,weatherlink.com 1.10,2013-05-16 13:29:00,
2013-05-16 06:44:00,42.1,39.0,29.84,SSW,213,2.0,-999.0,87,-99.99,,,0.00,51,weatherlink.com 1.10,2013-05-16 13:44:00,
2013-05-16 06:59:00,42.7,39.0,29.84,SSW,213,2.0,-999.0,86,-99.99,,,0.00,63,weatherlink.com 1.10,2013-05-16 13:59:00,
2013-05-16 07:14:00,43.4,39.0,29.84,SSW,213,0.0,-999.0,85,-99.99,,,0.00,97,weatherlink.com 1.10,2013-05-16 14:14:00,
2013-05-16 07:29:00,44.0,40.0,29.84,SSW,213,1.0,-999.0,84,-99.99,,,0.00,105,weatherlink.com 1.10,2013-05-16 14:29:00,
2013-05-16 07:44:00,44.6,39.0,29.84,SSW,213,0.0,-999.0,82,-99.99,,,0.00,241,weatherlink.com 1.10,2013-05-16 14:44:00,
2013-05-16 07:59:00,45.5,40.0,29.84,SSW,213,0.0,-999.0,80,-99.99,,,0.00,178,weatherlink.com 1.10,2013-05-16 14:59:00,
2013-05-16 08:14:00,45.9,40.0,29.83,SSW,213,0.0,-999.0,80,-99.99,,,0.00,155,weatherlink.com 1.10,2013-05-16 15:14:00,
2013-05-16 08:29:00,47.0,41.0,29.83,SSW,213,0.0,-999.0,79,-99.99,,,0.00,200,weatherlink.com 1.10,2013-05-16 15:29:00,
2013-05-16 08:44:00,47.8,40.0,29.83,NW,313,2.0,-999.0,74,-99.99,,,0.00,292,weatherlink.com 1.10,2013-05-16 15:44:00,
2013-05-16 08:59:00,48.4,40.0,29.83,NW,323,5.0,-999.0,73,-99.99,,,0.00,369,weatherlink.com 1.10,2013-05-16 15:59:00,
2013-05-16 09:14:00,50.2,41.0,29.82,NNW,341,2.0,-999.0,71,-99.99,,,0.00,608,weatherlink.com 1.10,2013-05-16 16:14:00,
2013-05-16 09:29:00,52.0,41.0,29.82,NNW,345,6.0,-999.0,67,-99.99,,,0.00,483,weatherlink.com 1.10,2013-05-16 16:29:00,
2013-05-16 09:44:00,51.7,41.0,29.82,North,5,0.0,-999.0,68,-99.99,,,0.00,671,weatherlink.com 1.10,2013-05-16 16:44:00,
2013-05-16 09:59:00,53.5,41.0,29.82,NE,42,1.0,-999.0,63,-99.99,,,0.00,425,weatherlink.com 1.10,2013-05-16 16:59:00,
2013-05-16 10:14:00,55.4,41.0,29.81,NE,43,4.0,-999.0,59,-99.99,,,0.00,649,weatherlink.com 1.10,2013-05-16 17:14:00,
2013-05-16 10:29:00,55.7,40.0,29.81,NE,36,0.0,-999.0,56,-99.99,,,0.00,396,weatherlink.com 1.10,2013-05-16 17:29:00,
2013-05-16 10:44:00,55.6,39.0,29.81,ENE,69,5.0,-999.0,54,-99.99,,,0.00,315,weatherlink.com 1.10,2013-05-16 17:44:00,
2013-05-16 10:59:00,54.8,39.0,29.81,East,98,1.0,-999.0,55,-99.99,,,0.00,397,weatherlink.com 1.10,2013-05-16 17:59:00,
2013-05-16 11:14:00,55.7,39.0,29.81,ENE,61,4.0,-999.0,54,-99.99,,,0.00,380,weatherlink.com 1.10,2013-05-16 18:14:00,
2013-05-16 11:29:00,56.5,39.0,29.80,SE,134,5.0,-999.0,52,-99.99,,,0.00,555,weatherlink.com 1.10,2013-05-16 18:29:00,
2013-05-16 11:44:00,56.9,38.0,29.80,ESE,103,5.0,-999.0,50,-99.99,,,0.00,628,weatherlink.com 1.10,2013-05-16 18:44:00,
2013-05-16 11:59:00,56.9,39.0,29.80,ESE,122,0.0,-999.0,51,-99.99,,,0.00,557,weatherlink.com 1.10,2013-05-16 18:59:00,
2013-05-16 12:14:00,58.0,39.0,29.80,East,99,0.0,-999.0,50,-99.99,,,0.00,524,weatherlink.com 1.10,2013-05-16 19:14:00,
2013-05-16 12:29:00,58.4,39.0,29.79,ENE,74,0.0,-999.0,49,-99.99,,,0.00,445,weatherlink.com 1.10,2013-05-16 19:29:00,
2013-05-16 12:44:00,58.1,39.0,29.78,SE,133,0.0,-999.0,50,-99.99,,,0.00,494,weatherlink.com 1.10,2013-05-16 19:44:00,
2013-05-16 12:59:00,58.2,39.0,29.78,WSW,246,6.0,-999.0,49,-99.99,,,0.00,244,weatherlink.com 1.10,2013-05-16 19:59:00,
2013-05-16 13:14:00,56.5,42.0,29.78,SSE,158,2.0,-999.0,59,-99.99,,,0.00,237,weatherlink.com 1.10,2013-05-16 20:14:00,
2013-05-16 13:29:00,55.9,42.0,29.78,South,181,5.0,-999.0,60,-99.99,,,0.00,294,weatherlink.com 1.10,2013-05-16 20:29:00,
2013-05-16 13:44:00,54.9,41.0,29.78,SW,217,7.0,-999.0,61,-99.99,,,0.00,123,weatherlink.com 1.10,2013-05-16 20:44:00,
2013-05-16 13:59:00,51.5,41.0,29.79,WNW,298,8.0,-999.0,68,-99.99,,,0.00,176,weatherlink.com 1.10,2013-05-16 20:59:00,
2013-05-16 14:14:00,49.6,43.0,29.79,West,272,7.0,-999.0,79,-99.99,,,0.00,237,weatherlink.com 1.10,2013-05-16 21:14:00,
2013-05-16 14:29:00,50.6,44.0,29.78,West,269,7.0,-999.0,79,-99.99,,,0.00,329,weatherlink.com 1.10,2013-05-16 21:29:00,
2013-05-16 14:44:00,51.6,44.0,29.78,WNW,297,7.0,-999.0,74,-99.99,,,0.00,278,weatherlink.com 1.10,2013-05-16 21:44:00,
2013-05-16 14:59:00,52.1,44.0,29.78,West,280,6.0,-999.0,73,-99.99,,,0.00,290,weatherlink.com 1.10,2013-05-16 21:59:00,
2013-05-16 15:14:00,52.3,44.0,29.77,WNW,299,7.0,-999.0,73,-99.99,,,0.00,279,weatherlink.com 1.10,2013-05-16 22:14:00,
2013-05-16 15:29:00,52.5,43.0,29.77,WNW,291,7.0,-999.0,69,-99.99,,,0.00,299,weatherlink.com 1.10,2013-05-16 22:29:00,
2013-05-16 15:44:00,52.9,43.0,29.77,NNW,327,9.0,-999.0,70,-99.99,,,0.00,315,weatherlink.com 1.10,2013-05-16 22:44:00,
2013-05-16 15:59:00,52.8,44.0,29.77,WNW,296,7.0,-999.0,71,-99.99,,,0.00,327,weatherlink.com 1.10,2013-05-16 22:59:00,
2013-05-16 16:14:00,53.6,44.0,29.77,WNW,303,8.0,-999.0,70,-99.99,,,0.00,417,weatherlink.com 1.10,2013-05-16 23:14:00,
2013-05-16 16:29:00,53.7,46.0,29.77,NW,320,9.0,-999.0,74,-99.99,,,0.00,323,weatherlink.com 1.10,2013-05-16 23:29:00,
2013-05-16 16:44:00,53.2,42.0,29.77,NW,316,13.0,-999.0,65,-99.99,,,0.00,176,weatherlink.com 1.10,2013-05-16 23:44:00,
2013-05-16 16:59:00,52.7,42.0,29.78,NW,323,11.0,-999.0,67,-99.99,,,0.00,111,weatherlink.com 1.10,2013-05-16 23:59:00,
2013-05-16 17:14:00,51.8,41.0,29.78,WNW,292,14.0,-999.0,68,-99.99,,,0.01,102,weatherlink.com 1.10,2013-05-17 00:14:00,
2013-05-16 17:29:00,50.4,42.0,29.78,NW,318,8.0,-999.0,72,-99.99,,,0.01,79,weatherlink.com 1.10,2013-05-17 00:29:00,
2013-05-16 17:44:00,49.1,42.0,29.78,WNW,290,10.0,-999.0,76,-99.99,,,0.01,86,weatherlink.com 1.10,2013-05-17 00:44:00,
2013-05-16 17:59:00,48.4,43.0,29.78,NW,309,6.0,-999.0,80,-99.99,,,0.01,70,weatherlink.com 1.10,2013-05-17 00:59:00,
2013-05-16 18:14:00,47.8,43.0,29.79,NNW,331,7.0,-999.0,82,-99.99,,,0.01,65,weatherlink.com 1.10,2013-05-17 01:14:00,
2013-05-16 18:29:00,47.3,43.0,29.78,NNW,331,3.0,-999.0,86,-99.99,,,0.02,74,weatherlink.com 1.10,2013-05-17 01:29:00,
2013-05-16 18:44:00,47.5,44.0,29.79,NNW,333,0.0,-999.0,86,-99.99,,,0.03,74,weatherlink.com 1.10,2013-05-17 01:44:00,
2013-05-16 18:59:00,47.8,45.0,29.79,NNW,333,2.0,-999.0,88,-99.99,,,0.03,67,weatherlink.com 1.10,2013-05-17 01:59:00,
2013-05-16 19:14:00,47.6,44.0,29.79,NNW,333,2.0,-999.0,86,-99.99,,,0.03,62,weatherlink.com 1.10,2013-05-17 02:14:00,
2013-05-16 19:29:00,47.3,43.0,29.80,NNW,333,0.0,-999.0,86,-99.99,,,0.03,37,weatherlink.com 1.10,2013-05-17 02:29:00,
2013-05-16 19:44:00,47.1,44.0,29.80,NNW,333,0.0,-999.0,88,-99.99,,,0.03,23,weatherlink.com 1.10,2013-05-17 02:44:00,
2013-05-16 19:59:00,46.9,43.0,29.80,NNW,333,0.0,-999.0,87,-99.99,,,0.03,16,weatherlink.com 1.10,2013-05-17 02:59:00,
2013-05-16 20:14:00,46.8,43.0,29.81,NNW,333,3.0,-999.0,85,-99.99,,,0.03,7,weatherlink.com 1.10,2013-05-17 03:14:00,
2013-05-16 20:29:00,46.7,43.0,29.81,NNW,333,2.0,-999.0,88,-99.99,,,0.03,0,weatherlink.com 1.10,2013-05-17 03:29:00,
2013-05-16 20:44:00,46.2,43.0,29.81,NNW,333,0.0,-999.0,88,-99.99,,,0.03,0,weatherlink.com 1.10,2013-05-17 03:44:00,
2013-05-16 21:00:00,45.8,43.0,29.81,NNW,333,0.0,-999.0,88,-99.99,,,0.03,0,weatherlink.com 1.10,2013-05-17 04:00:00,
2013-05-16 21:14:00,45.6,42.0,29.82,NNW,333,0.0,-999.0,88,-99.99,,,0.03,0,weatherlink.com 1.10,2013-05-17 04:14:00,
2013-05-16 21:29:00,45.2,42.0,29.82,NNW,333,0.0,-999.0,88,-99.99,,,0.03,0,weatherlink.com 1.10,2013-05-17 04:29:00,
2013-05-16 21:44:00,45.1,42.0,29.83,NNW,333,0.0,-999.0,89,-99.99,,,0.03,0,weatherlink.com 1.10,2013-05-17 04:44:00,
2013-05-16 22:00:00,44.8,42.0,29.83,NNW,333,1.0,-999.0,90,-99.99,,,0.03,0,weatherlink.com 1.10,2013-05-17 05:00:00,
2013-05-16 22:14:00,44.6,42.0,29.83,NNW,333,0.0,-999.0,90,-99.99,,,0.03,0,weatherlink.com 1.10,2013-05-17 05:14:00,
2013-05-16 22:29:00,44.4,42.0,29.83,NNW,333,0.0,-999.0,91,-99.99,,,0.03,0,weatherlink.com 1.10,2013-05-17 05:29:00,
2013-05-16 22:44:00,44.2,42.0,29.84,NNW,333,0.0,-999.0,90,-99.99,,,0.03,0,weatherlink.com 1.10,2013-05-17 05:44:00,
2013-05-16 22:59:00,44.2,42.0,29.84,NNW,333,0.0,-999.0,91,-99.99,,,0.03,0,weatherlink.com 1.10,2013-05-17 05:59:00,
2013-05-16 23:14:00,44.2,42.0,29.84,NNW,333,1.0,-999.0,91,-99.99,,,0.03,0,weatherlink.com 1.10,2013-05-17 06:14:00,
2013-05-16 23:29:00,44.1,42.0,29.84,NNW,333,3.0,-999.0,91,-99.99,,,0.03,0,weatherlink.com 1.10,2013-05-17 06:29:00,
2013-05-16 23:44:00,44.1,42.0,29.84,NNW,333,0.0,-999.0,91,-99.99,,,0.03,0,weatherlink.com 1.10,2013-05-17 06:44:00,
2013-05-16 23:59:00,44.1,42.0,29.84,NNW,333,0.0,-999.0,91,-99.99,,,0.00,0,weatherlink.com 1.10,2013-05-17 06:59:00,